createdAt,value
2023-05-19T00:01:25.083Z,101661.00
2023-05-19T00:06:31.954Z,101660.80
2023-05-19T00:11:38.055Z,101665.00
2023-05-19T00:16:42.354Z,101660.00
2023-05-19T00:21:45.243Z,101664.00
2023-05-19T00:26:48.147Z,101660.60
2023-05-19T00:31:51.183Z,101655.00
2023-05-19T00:36:54.055Z,101655.40
2023-05-19T00:41:56.965Z,101652.40
2023-05-19T00:46:59.904Z,101645.80
2023-05-19T00:52:03.410Z,101637.80
2023-05-19T00:57:06.933Z,101631.60
2023-05-19T01:02:10.038Z,101632.40
2023-05-19T01:07:12.943Z,101637.80
2023-05-19T01:12:16.372Z,101636.40
2023-05-19T01:17:49.688Z,101635.60
2023-05-19T01:24:04.940Z,101636.00
2023-05-19T01:29:40.195Z,101635.80
2023-05-19T01:34:46.495Z,101635.40
2023-05-19T01:39:50.505Z,101635.80
2023-05-19T01:44:54.943Z,101631.80
2023-05-19T01:49:57.903Z,101627.00
2023-05-19T01:55:00.991Z,101622.00
2023-05-19T02:00:23.843Z,101627.00
2023-05-19T02:06:01.028Z,101632.00
2023-05-19T02:11:21.797Z,101634.60
2023-05-19T02:16:29.430Z,101633.60
2023-05-19T02:21:32.422Z,101634.40
2023-05-19T02:26:35.413Z,101634.80
2023-05-19T02:31:38.382Z,101639.40
2023-05-19T02:36:46.079Z,101649.40
2023-05-19T02:41:49.010Z,101645.00
2023-05-19T02:46:51.944Z,101644.40
2023-05-19T02:51:54.850Z,101642.00
2023-05-19T02:56:58.245Z,101645.60
2023-05-19T03:02:02.662Z,101644.00
2023-05-19T03:07:06.303Z,101640.60
2023-05-19T03:12:09.545Z,101634.60
2023-05-19T03:17:12.473Z,101640.40
2023-05-19T03:22:15.475Z,101641.80
2023-05-19T03:27:18.336Z,101642.40
2023-05-19T03:32:21.388Z,101644.20
2023-05-19T03:37:24.584Z,101638.60
2023-05-19T03:42:27.547Z,101646.20
2023-05-19T03:47:31.797Z,101641.80
2023-05-19T03:52:34.790Z,101640.60
2023-05-19T03:57:37.898Z,101643.20
2023-05-19T04:02:41.334Z,101641.20
2023-05-19T04:07:46.876Z,101643.60
2023-05-19T04:12:49.914Z,101641.80
2023-05-19T04:17:52.863Z,101643.60
2023-05-19T04:22:55.760Z,101642.60
2023-05-19T04:27:59.008Z,101641.80
2023-05-19T04:33:03.948Z,101652.20
2023-05-19T04:38:06.836Z,101652.60
2023-05-19T04:43:11.491Z,101648.40
2023-05-19T04:48:15.247Z,101657.80
2023-05-19T04:53:18.862Z,101655.80
2023-05-19T04:58:21.691Z,101659.60
2023-05-19T05:03:26.580Z,101664.80
2023-05-19T05:08:30.412Z,101669.20
2023-05-19T05:13:33.900Z,101669.60
2023-05-19T05:18:38.862Z,101670.80
2023-05-19T05:23:42.166Z,101665.80
2023-05-19T05:28:45.314Z,101665.80
2023-05-19T05:33:48.293Z,101662.80
2023-05-19T05:38:51.745Z,101659.00
2023-05-19T05:43:54.961Z,101664.00
2023-05-19T05:48:58.245Z,101667.20
2023-05-19T05:54:03.180Z,101664.80
2023-05-19T05:59:06.099Z,101667.40
2023-05-19T06:04:08.971Z,101670.20
2023-05-19T06:09:12.518Z,101671.20
2023-05-19T06:14:15.401Z,101676.80
2023-05-19T06:19:20.365Z,101681.60
2023-05-19T06:24:23.509Z,101680.00
2023-05-19T06:29:26.425Z,101675.00
2023-05-19T06:34:29.328Z,101675.40
2023-05-19T06:39:32.604Z,101678.80
2023-05-19T06:44:35.745Z,101673.20
2023-05-19T06:49:38.730Z,101680.80
2023-05-19T06:54:41.672Z,101680.00
2023-05-19T06:59:46.815Z,101677.60
2023-05-19T07:04:52.880Z,101680.60
2023-05-19T07:09:55.978Z,101683.20
2023-05-19T07:14:58.913Z,101683.60
2023-05-19T07:20:02.033Z,101690.00
2023-05-19T07:25:06.686Z,101694.80
2023-05-19T07:30:10.146Z,101698.60
2023-05-19T07:35:13.290Z,101698.40
2023-05-19T07:40:16.246Z,101704.00
2023-05-19T07:45:19.272Z,101701.40
2023-05-19T07:50:25.902Z,101707.60
2023-05-19T07:55:29.432Z,101711.80
2023-05-19T08:00:32.883Z,101713.80
2023-05-19T08:05:36.687Z,101713.60
2023-05-19T08:10:39.769Z,101708.40
2023-05-19T08:15:43.473Z,101710.00
2023-05-19T08:20:46.900Z,101710.00
2023-05-19T08:25:49.964Z,101701.40
2023-05-19T08:30:52.977Z,101704.40
2023-05-19T08:35:58.383Z,101708.20
2023-05-19T08:41:01.863Z,101705.80
2023-05-19T08:46:06.424Z,101702.40
2023-05-19T08:51:22.143Z,101702.60
2023-05-19T08:56:26.851Z,101705.80
2023-05-19T09:01:31.005Z,101709.20
2023-05-19T09:06:34.022Z,101703.40
2023-05-19T09:11:40.034Z,101709.60
2023-05-19T09:16:48.269Z,101704.00
2023-05-19T09:22:04.837Z,101703.40
2023-05-19T09:27:08.501Z,101704.80
2023-05-19T09:32:12.032Z,101702.60
2023-05-19T09:37:14.977Z,101700.20
2023-05-19T09:42:29.970Z,101697.20
2023-05-19T09:47:38.565Z,101696.80
2023-05-19T09:52:44.828Z,101697.20
2023-05-19T09:57:48.270Z,101696.00
2023-05-19T10:02:51.874Z,101698.20
2023-05-19T10:07:55.942Z,101697.00
2023-05-19T10:13:00.882Z,101698.00
2023-05-19T10:18:04.543Z,101688.80
2023-05-19T10:23:07.483Z,101692.40
2023-05-19T10:28:18.624Z,101696.20
2023-05-19T10:33:42.212Z,101693.00
2023-05-19T10:39:02.629Z,101695.60
2023-05-19T10:44:39.213Z,101699.80
2023-05-19T10:49:45.828Z,101693.60
2023-05-19T10:54:49.995Z,101698.00
2023-05-19T10:59:53.238Z,101704.20
2023-05-19T11:05:13.140Z,101704.60
2023-05-19T11:10:24.058Z,101704.60
2023-05-19T11:15:29.223Z,101704.20
2023-05-19T11:20:35.140Z,101711.00
2023-05-19T11:25:54.103Z,101706.20
2023-05-19T11:30:59.767Z,101702.20
2023-05-19T11:36:03.276Z,101702.40
2023-05-19T11:41:06.312Z,101690.40
2023-05-19T11:46:09.846Z,101690.80
2023-05-19T11:51:12.932Z,101698.60
2023-05-19T11:56:15.831Z,101705.40
2023-05-19T12:01:19.407Z,101710.80
2023-05-19T12:06:22.369Z,101712.20
2023-05-19T12:11:25.387Z,101709.60
2023-05-19T12:16:35.633Z,101703.80
2023-05-19T12:21:39.320Z,101704.00
2023-05-19T12:26:42.472Z,101702.80
2023-05-19T12:31:47.716Z,101700.80
2023-05-19T12:36:50.846Z,101705.00
2023-05-19T12:41:54.418Z,101713.80
2023-05-19T12:46:59.676Z,101709.00
2023-05-19T12:52:11.923Z,101709.40
2023-05-19T12:57:21.186Z,101718.20
2023-05-19T13:02:24.860Z,101718.00
2023-05-19T13:07:28.627Z,101711.60
2023-05-19T13:12:31.674Z,101713.60
2023-05-19T13:17:34.860Z,101707.00
2023-05-19T13:22:38.045Z,101692.20
2023-05-19T13:27:40.948Z,101681.80
2023-05-19T13:32:44.843Z,101674.00
2023-05-19T13:37:49.568Z,101675.60
2023-05-19T13:42:52.517Z,101655.80
2023-05-19T13:47:55.510Z,101659.80
2023-05-19T13:52:58.494Z,101673.20
2023-05-19T13:58:01.498Z,101673.40
2023-05-19T14:03:04.560Z,101670.60
2023-05-19T14:08:07.701Z,101673.20
2023-05-19T14:13:31.439Z,101678.80
2023-05-19T14:18:35.814Z,101675.40
2023-05-19T14:23:38.806Z,101676.40
2023-05-19T14:28:42.498Z,101666.60
2023-05-19T14:33:45.409Z,101651.60
2023-05-19T14:38:48.236Z,101649.00
2023-05-19T14:43:51.139Z,101643.40
2023-05-19T14:48:54.061Z,101653.00
2023-05-19T14:53:56.982Z,101639.00
2023-05-19T14:58:59.962Z,101662.80
2023-05-19T15:04:02.875Z,101661.60
2023-05-19T15:09:06.014Z,101648.00
2023-05-19T15:14:09.095Z,101659.20
2023-05-19T15:19:11.999Z,101659.20
2023-05-19T15:24:14.897Z,101658.80
2023-05-19T15:29:17.900Z,101645.20
2023-05-19T15:34:21.164Z,101638.60
2023-05-19T15:39:24.395Z,101641.00
2023-05-19T15:44:29.013Z,101638.20
2023-05-19T15:49:32.148Z,101631.20
2023-05-19T15:54:35.084Z,101629.60
2023-05-19T15:59:37.932Z,101637.20
2023-05-19T16:04:40.823Z,101625.80
2023-05-19T16:09:43.755Z,101632.00
2023-05-19T16:14:46.766Z,101631.40
2023-05-19T16:19:49.675Z,101628.80
2023-05-19T16:24:53.117Z,101631.40
2023-05-19T16:29:56.139Z,101630.80
2023-05-19T16:34:59.196Z,101629.80
2023-05-19T16:40:02.303Z,101627.20
2023-05-19T16:45:06.032Z,101637.40
2023-05-19T16:50:09.735Z,101634.00
2023-05-19T16:55:17.406Z,101638.40
2023-05-19T17:00:20.639Z,101628.60
2023-05-19T17:05:23.959Z,101633.00
2023-05-19T17:10:27.018Z,101630.00
2023-05-19T17:15:30.444Z,101629.00
2023-05-19T17:20:33.621Z,101630.20
2023-05-19T17:25:36.760Z,101630.80
2023-05-19T17:30:41.405Z,101623.60
2023-05-19T17:35:44.376Z,101623.80
2023-05-19T17:40:47.549Z,101628.20
2023-05-19T17:45:50.746Z,101634.20
2023-05-19T17:50:53.761Z,101631.20
2023-05-19T17:56:02.276Z,101628.20
2023-05-19T18:01:05.768Z,101633.60
2023-05-19T18:06:08.927Z,101631.60
2023-05-19T18:11:16.032Z,101635.80
2023-05-19T18:16:19.010Z,101635.80
2023-05-19T18:21:22.048Z,101631.00
2023-05-19T18:26:24.994Z,101627.60
2023-05-19T18:31:28.878Z,101635.80
2023-05-19T18:36:31.875Z,101632.40
2023-05-19T18:41:37.480Z,101636.80
2023-05-19T18:46:40.520Z,101643.20
2023-05-19T18:51:43.529Z,101645.80
2023-05-19T18:56:46.760Z,101640.40
2023-05-19T19:01:49.789Z,101642.00
2023-05-19T19:06:52.897Z,101643.00
2023-05-19T19:11:55.905Z,101645.20
2023-05-19T19:16:58.901Z,101647.40
2023-05-19T19:22:01.874Z,101655.20
2023-05-19T19:27:05.453Z,101653.00
2023-05-19T19:32:08.812Z,101659.40
2023-05-19T19:37:14.493Z,101662.20
2023-05-19T19:42:17.431Z,101664.00
2023-05-19T19:47:20.413Z,101669.00
2023-05-19T19:52:23.886Z,101666.80
2023-05-19T19:57:29.166Z,101670.00
2023-05-19T20:02:32.229Z,101665.60
2023-05-19T20:07:35.290Z,101669.20
2023-05-19T20:12:38.353Z,101672.60
2023-05-19T20:17:41.300Z,101664.80
2023-05-19T20:22:46.162Z,101663.00
2023-05-19T20:27:49.239Z,101669.80
2023-05-19T20:32:52.316Z,101671.60
2023-05-19T20:37:55.406Z,101674.80
2023-05-19T20:42:58.414Z,101672.00
2023-05-19T20:48:02.810Z,101669.80
2023-05-19T20:53:07.460Z,101667.60
2023-05-19T20:58:10.595Z,101666.60
2023-05-19T21:03:13.700Z,101660.40
2023-05-19T21:08:16.983Z,101653.80
2023-05-19T21:13:20.171Z,101654.40
2023-05-19T21:18:23.140Z,101661.60
2023-05-19T21:23:26.085Z,101657.60
2023-05-19T21:28:29.019Z,101660.20
2023-05-19T21:33:32.096Z,101660.00
2023-05-19T21:38:35.123Z,101658.20
2023-05-19T21:43:38.184Z,101662.40
2023-05-19T21:48:41.150Z,101667.80
2023-05-19T21:53:44.077Z,101661.00
2023-05-19T21:58:46.970Z,101660.80
2023-05-19T22:03:50.104Z,101663.20
2023-05-19T22:08:53.149Z,101665.80
2023-05-19T22:13:56.228Z,101660.80
2023-05-19T22:18:59.261Z,101661.00
2023-05-19T22:24:02.662Z,101651.60
2023-05-19T22:29:05.714Z,101652.40
2023-05-19T22:34:08.682Z,101658.40
2023-05-19T22:39:12.716Z,101657.80
2023-05-19T22:44:16.472Z,101661.80
2023-05-19T22:49:23.107Z,101660.60
2023-05-19T22:54:26.108Z,101656.60
2023-05-19T22:59:29.947Z,101662.20
2023-05-19T23:04:34.423Z,101659.20
2023-05-19T23:09:37.501Z,101656.60
2023-05-19T23:14:40.506Z,101654.80
2023-05-19T23:19:43.665Z,101655.60
2023-05-19T23:24:46.692Z,101650.00
2023-05-19T23:29:51.829Z,101649.80
2023-05-19T23:34:54.840Z,101650.60
2023-05-19T23:39:57.827Z,101648.20
2023-05-19T23:45:00.788Z,101650.20
2023-05-19T23:50:04.052Z,101648.20
2023-05-19T23:55:08.307Z,101648.80
